X  CloseMetar Aviation Weather Data     YMAV Avalon

Temperature

22°C Temperature

6°C Dewpoint

36% Humidity



Wind

 5 KM/H

 3 MPH

 1 M/S

 3 KTS



100°
Due East
Current Conditions

Clear Clear
Pressure 1016.92 (hPa) - 30.03 (in)
Visibility 6.2 (mi) - 10 (km)
Airport
Airport-code YMAV

Location Avalon 14 (km)

Metar:
YMAV 230800Z AUTO 10003KT 9999 // NCD 22/06 Q1017 RF00.0/000.0

Time: 23-10-2019 19:00